Fergestown, Illinois
Current Conditions -  °F | °C
As of 10:35 PM on Friday 24 Oct 2014 (Local Time) from KMWA Reporting Station
Clear Clear  
Wind Chill: 55°   Ceiling: Unl
Heat Index: 55°   Visibility: 10mi
Dew Point: 52°   Wind: 7mph
Humidity: 88%   Direction: 180°S
Pressure: 30.06"   Gusts: NA
Location:  37.8335°N, 88.8867°W
Report Text: KMWA 250335Z AUTO 18006KT 10SM CLR 13/11 A3006 RMK AO2
Loading
Personal Weather Stations






























Interactive Weather Map
Tropical Storm Tracking
New forecast layout! Learn more

10-Day Weather Forecast

Advertisements
Track Severe Weather on mobile